createdAt,value
2018-02-22T00:38:22.980Z,0
2018-02-22T00:39:33.108Z,0
2018-02-22T00:40:43.320Z,0
2018-02-22T00:41:53.474Z,0
2018-02-22T00:43:03.671Z,0
2018-02-22T00:44:13.853Z,0
2018-02-22T00:45:23.474Z,0
2018-02-22T00:46:33.643Z,0
2018-02-22T00:47:43.738Z,0
2018-02-22T00:48:53.848Z,0
2018-02-22T00:50:03.757Z,0
2018-02-22T00:51:13.547Z,0
2018-02-22T00:52:23.656Z,0
2018-02-22T00:53:33.773Z,0
2018-02-22T00:54:43.915Z,0
2018-02-22T00:55:54.071Z,0
2018-02-22T00:57:04.445Z,0
2018-02-22T00:58:14.565Z,0
2018-02-22T00:59:24.325Z,0
2018-02-22T01:00:34.754Z,0
2018-02-22T01:01:44.886Z,0
2018-02-22T01:02:54.736Z,0
2018-02-22T01:04:04.703Z,0
2018-02-22T01:05:14.865Z,0
2018-02-22T01:06:24.717Z,0
2018-02-22T01:07:34.955Z,0
2018-02-22T01:08:45.103Z,0
2018-02-22T01:09:55.371Z,0
2018-02-22T01:11:05.504Z,0
2018-02-22T01:12:15.867Z,0
2018-02-22T01:13:26.030Z,0
2018-02-22T01:14:36.162Z,0
2018-02-22T01:15:46.320Z,0
2018-02-22T01:16:56.252Z,0
2018-02-22T01:18:06.392Z,0
2018-02-22T01:19:16.248Z,0
2018-02-22T01:20:26.447Z,0
2018-02-22T01:21:36.616Z,0
2018-02-22T01:22:46.926Z,0
2018-02-22T01:23:56.841Z,0
2018-02-22T01:25:06.958Z,0
2018-02-22T01:26:16.782Z,0
2018-02-22T01:27:26.917Z,0
2018-02-22T01:28:37.043Z,0
2018-02-22T01:29:47.167Z,0
2018-02-22T01:30:57.041Z,0
2018-02-22T01:32:06.904Z,0
2018-02-22T01:33:17.095Z,0
2018-02-22T01:34:27.247Z,0
2018-02-22T01:35:37.372Z,0
2018-02-22T01:36:47.597Z,0
2018-02-22T01:37:57.727Z,0
2018-02-22T01:39:07.914Z,0
2018-02-22T01:40:17.891Z,0
2018-02-22T01:41:28.044Z,0
2018-02-22T01:42:38.213Z,0
2018-02-22T01:43:48.137Z,0
2018-02-22T01:44:58.241Z,0
2018-02-22T01:46:08.053Z,0
2018-02-22T01:47:18.170Z,0
2018-02-22T01:48:28.312Z,0
2018-02-22T01:49:38.546Z,0
2018-02-22T01:50:48.668Z,0
2018-02-22T01:51:58.781Z,0
2018-02-22T01:53:08.548Z,0
2018-02-22T01:54:18.139Z,0
2018-02-22T01:55:27.679Z,0
2018-02-22T01:56:37.589Z,0
2018-02-22T01:57:47.700Z,0
2018-02-22T01:58:57.929Z,0
2018-02-22T02:00:08.090Z,0
2018-02-22T02:01:18.249Z,0
2018-02-22T02:02:28.629Z,0
2018-02-22T02:03:38.914Z,0
2018-02-22T02:04:49.069Z,0
2018-02-22T02:05:59.307Z,0
2018-02-22T02:07:09.171Z,0
2018-02-22T02:08:19.310Z,0
2018-02-22T02:09:29.425Z,0
2018-02-22T02:10:39.608Z,0
2018-02-22T02:11:49.493Z,0
2018-02-22T02:12:59.675Z,0
2018-02-22T02:14:09.820Z,0
2018-02-22T02:15:20.023Z,0
2018-02-22T02:16:30.144Z,0
2018-02-22T02:17:40.275Z,0
2018-02-22T02:18:50.398Z,0
2018-02-22T02:20:00.514Z,0
2018-02-22T02:21:10.632Z,0
2018-02-22T02:22:20.795Z,0
2018-02-22T02:23:30.904Z,0
2018-02-22T02:24:40.786Z,0
2018-02-22T02:25:51.241Z,0
2018-02-22T02:27:00.747Z,0
2018-02-22T02:28:10.241Z,0
2018-02-22T02:29:20.360Z,0
2018-02-22T02:30:30.484Z,0
2018-02-22T02:31:40.641Z,0
2018-02-22T02:32:50.325Z,0
2018-02-22T02:34:00.202Z,0
2018-02-22T02:35:10.576Z,0
2018-02-22T02:36:20.457Z,0
2018-02-22T02:37:30.612Z,0
2018-02-22T02:38:40.465Z,0
2018-02-22T02:39:50.623Z,0
2018-02-22T02:41:00.511Z,0
2018-02-22T02:42:10.325Z,0
2018-02-22T02:43:20.487Z,0
2018-02-22T02:44:30.719Z,0
2018-02-22T02:45:40.995Z,0
2018-02-22T02:46:51.189Z,0
2018-02-22T02:48:01.069Z,0
2018-02-22T02:49:10.575Z,0
2018-02-22T02:50:20.868Z,0
2018-02-22T02:51:31.093Z,0
2018-02-22T02:52:41.250Z,0
2018-02-22T02:53:50.972Z,0
2018-02-22T02:55:00.490Z,0
2018-02-22T02:56:10.619Z,0
2018-02-22T02:57:20.763Z,0
2018-02-22T02:58:30.893Z,0
2018-02-22T02:59:41.058Z,0
2018-02-22T03:00:50.963Z,0
2018-02-22T03:02:00.876Z,0
2018-02-22T03:03:10.372Z,0
2018-02-22T03:04:20.222Z,0
2018-02-22T03:05:29.574Z,0
2018-02-22T03:06:39.717Z,0
2018-02-22T03:07:49.848Z,0
2018-02-22T03:08:59.998Z,0
2018-02-22T03:10:10.212Z,0
2018-02-22T03:11:20.401Z,0
2018-02-22T03:12:30.546Z,0
2018-02-22T03:13:40.682Z,0
2018-02-22T03:14:50.790Z,0
2018-02-22T03:16:00.941Z,0
2018-02-22T03:17:11.092Z,0
2018-02-22T03:18:21.004Z,0
2018-02-22T03:19:31.133Z,0
2018-02-22T03:20:41.347Z,0
2018-02-22T03:21:51.587Z,0
2018-02-22T03:23:01.780Z,0
2018-02-22T03:24:11.902Z,0
2018-02-22T03:25:22.099Z,0
2018-02-22T03:26:32.302Z,0
2018-02-22T03:27:42.514Z,0
2018-02-22T03:28:52.716Z,0
2018-02-22T03:30:02.880Z,0
2018-02-22T03:31:12.745Z,0
2018-02-22T03:32:22.600Z,0
2018-02-22T03:33:32.740Z,0
2018-02-22T03:34:42.604Z,0
2018-02-22T03:35:52.454Z,0
2018-02-22T03:37:02.578Z,0
2018-02-22T03:38:12.732Z,0
2018-02-22T03:39:22.585Z,0
2018-02-22T03:40:32.698Z,0
2018-02-22T03:41:42.824Z,0
2018-02-22T03:42:52.737Z,0
2018-02-22T03:44:02.367Z,0
2018-02-22T03:45:12.563Z,0
2018-02-22T03:46:22.746Z,0
2018-02-22T03:47:32.921Z,0
2018-02-22T03:48:43.213Z,0
2018-02-22T03:49:53.410Z,0
2018-02-22T03:51:03.603Z,0
2018-02-22T03:52:13.839Z,0
2018-02-22T03:53:24.004Z,0
2018-02-22T03:54:34.238Z,0
2018-02-22T03:55:44.654Z,0
2018-02-22T03:56:54.764Z,0
2018-02-22T03:58:04.928Z,0
2018-02-22T03:59:15.173Z,0
2018-02-22T04:00:25.410Z,0
2018-02-22T04:01:35.530Z,0
2018-02-22T04:02:45.394Z,0
2018-02-22T04:03:55.584Z,0
2018-02-22T04:05:05.485Z,0
2018-02-22T04:06:15.326Z,0
2018-02-22T04:07:25.464Z,0
2018-02-22T04:08:35.317Z,0
2018-02-22T04:09:45.207Z,0
2018-02-22T04:10:55.421Z,0
2018-02-22T04:12:05.576Z,0
2018-02-22T04:13:15.474Z,0
2018-02-22T04:14:25.758Z,0
2018-02-22T04:15:35.903Z,0
2018-02-22T04:16:45.754Z,0
2018-02-22T04:17:55.866Z,0
2018-02-22T04:19:05.973Z,0
2018-02-22T04:20:15.944Z,0
2018-02-22T04:21:26.067Z,0
2018-02-22T04:22:35.912Z,0
2018-02-22T04:23:46.063Z,0
2018-02-22T04:24:56.200Z,0
2018-02-22T04:26:05.700Z,0
2018-02-22T04:27:15.832Z,0
2018-02-22T04:28:25.790Z,0
2018-02-22T04:29:35.438Z,0
2018-02-22T04:30:45.828Z,0
2018-02-22T04:31:55.961Z,0
2018-02-22T04:33:06.171Z,0
2018-02-22T04:34:16.048Z,0
2018-02-22T04:35:25.539Z,0
2018-02-22T04:36:35.695Z,0
2018-02-22T04:37:45.560Z,0
2018-02-22T04:38:55.499Z,0
2018-02-22T04:40:05.084Z,0
2018-02-22T04:41:14.968Z,0
2018-02-22T04:42:25.087Z,0
2018-02-22T04:43:35.221Z,0
2018-02-22T04:44:45.089Z,0
2018-02-22T04:45:54.929Z,0
2018-02-22T04:47:04.817Z,0
2018-02-22T04:48:14.948Z,0
2018-02-22T04:49:25.105Z,0
2018-02-22T04:50:35.368Z,0
2018-02-22T04:51:45.481Z,0
2018-02-22T04:52:55.015Z,0
2018-02-22T04:54:04.919Z,0
2018-02-22T04:55:15.080Z,0
2018-02-22T04:56:25.060Z,0
2018-02-22T04:57:35.184Z,0
2018-02-22T04:58:45.578Z,0
2018-02-22T04:59:55.733Z,0
2018-02-22T05:01:05.836Z,0
2018-02-22T05:02:16.178Z,0
2018-02-22T05:03:26.294Z,0
2018-02-22T05:04:36.150Z,0
2018-02-22T05:05:46.044Z,0
2018-02-22T05:06:55.924Z,0
2018-02-22T05:08:05.830Z,0
2018-02-22T05:09:15.596Z,0
2018-02-22T05:10:25.562Z,0
2018-02-22T05:11:35.407Z,0
2018-02-22T05:12:45.271Z,0
2018-02-22T05:13:55.390Z,0
2018-02-22T05:15:05.545Z,0
2018-02-22T05:16:15.720Z,0
2018-02-22T05:17:25.955Z,0
2018-02-22T05:18:36.112Z,0
2018-02-22T05:19:45.721Z,0
2018-02-22T05:20:55.835Z,0
2018-02-22T05:22:05.959Z,0
2018-02-22T05:23:15.854Z,0
2018-02-22T05:24:26.050Z,0
2018-02-22T05:25:35.980Z,0
2018-02-22T05:26:46.256Z,0
2018-02-22T05:27:56.415Z,0
2018-02-22T05:29:06.703Z,0
2018-02-22T05:30:16.917Z,0
2018-02-22T05:31:27.141Z,0
2018-02-22T05:32:36.838Z,0
2018-02-22T05:33:46.975Z,0
2018-02-22T05:34:57.228Z,0
2018-02-22T05:36:07.377Z,0
2018-02-22T05:37:17.522Z,0
2018-02-22T05:38:27.658Z,0
2018-02-22T05:39:37.388Z,0
2018-02-22T05:40:47.524Z,0
2018-02-22T05:41:57.397Z,0
2018-02-22T05:43:07.383Z,4
2018-02-22T05:44:17.303Z,0
2018-02-22T05:45:27.466Z,4
2018-02-22T05:46:37.363Z,0
2018-02-22T05:47:47.525Z,4
2018-02-22T05:48:57.632Z,8
2018-02-22T05:50:07.790Z,4
2018-02-22T05:51:17.754Z,8
2018-02-22T05:52:27.520Z,8
2018-02-22T05:53:37.717Z,12
2018-02-22T05:54:47.836Z,12
2018-02-22T05:55:57.700Z,16
2018-02-22T05:57:07.840Z,20
2018-02-22T05:58:17.992Z,24
2018-02-22T05:59:27.754Z,28
2018-02-22T06:00:37.341Z,40
2018-02-22T06:01:47.480Z,44
2018-02-22T06:02:57.599Z,48
2018-02-22T06:04:08.037Z,64
2018-02-22T06:05:18.198Z,72
2018-02-22T06:06:28.050Z,84
2018-02-22T06:07:38.197Z,96
2018-02-22T06:08:47.680Z,112
2018-02-22T06:09:57.539Z,128
2018-02-22T06:11:07.750Z,144
2018-02-22T06:12:17.968Z,168
2018-02-22T06:13:27.860Z,184
2018-02-22T06:14:38.032Z,208
2018-02-22T06:15:47.910Z,228
2018-02-22T06:16:58.050Z,256
2018-02-22T06:18:07.309Z,280
2018-02-22T06:19:17.559Z,308
2018-02-22T06:20:27.566Z,336
2018-02-22T06:21:37.797Z,368
2018-02-22T06:22:47.663Z,400
2018-02-22T06:23:57.859Z,432
2018-02-22T06:25:08.968Z,468
2018-02-22T06:26:18.865Z,504
2018-02-22T06:27:29.034Z,540
2018-02-22T06:28:38.896Z,580
2018-02-22T06:29:49.050Z,624
2018-02-22T06:30:58.903Z,672
2018-02-22T06:32:08.667Z,712
2018-02-22T06:33:18.801Z,756
2018-02-22T06:34:28.975Z,804
2018-02-22T06:35:39.112Z,852
2018-02-22T06:36:49.257Z,904
2018-02-22T06:37:59.184Z,956
2018-02-22T06:39:09.302Z,1012
2018-02-22T06:40:19.294Z,1068
2018-02-22T06:41:29.206Z,1120
2018-02-22T06:42:39.331Z,1172
2018-02-22T06:43:49.188Z,1240
2018-02-22T06:44:59.419Z,1308
2018-02-22T06:46:09.301Z,1360
2018-02-22T06:47:19.241Z,1440
2018-02-22T06:48:29.358Z,1508
2018-02-22T06:49:39.516Z,1572
2018-02-22T06:50:49.574Z,1628
2018-02-22T06:51:59.761Z,1692
2018-02-22T06:53:09.837Z,1756
2018-02-22T06:54:20.212Z,1840
2018-02-22T06:55:30.423Z,1904
2018-02-22T06:56:40.313Z,1964
2018-02-22T06:57:50.438Z,2020
2018-02-22T06:59:00.621Z,2100
2018-02-22T07:00:10.534Z,2172
2018-02-22T07:01:20.709Z,2228
2018-02-22T07:02:30.845Z,2304
2018-02-22T07:03:40.339Z,2380
2018-02-22T07:04:50.217Z,2444
2018-02-22T07:06:00.404Z,2508
2018-02-22T07:07:10.414Z,2560
2018-02-22T07:08:20.539Z,2652
2018-02-22T07:09:30.409Z,2724
2018-02-22T07:10:40.279Z,2840
2018-02-22T07:11:50.143Z,3012
2018-02-22T07:12:59.991Z,3108
2018-02-22T07:14:09.791Z,3328
2018-02-22T07:15:19.562Z,3780
2018-02-22T07:16:29.691Z,4048
2018-02-22T07:17:39.843Z,3924
2018-02-22T07:18:49.646Z,3792
2018-02-22T07:19:59.805Z,3764
2018-02-22T07:21:09.669Z,3868
2018-02-22T07:22:19.799Z,3960
2018-02-22T07:23:29.952Z,4232
2018-02-22T07:24:39.945Z,4704
2018-02-22T07:25:49.881Z,5280
2018-02-22T07:26:59.813Z,5692
2018-02-22T07:28:09.588Z,5052
2018-02-22T07:29:19.111Z,4488
2018-02-22T07:30:28.958Z,4636
2018-02-22T07:31:38.727Z,5328
2018-02-22T07:32:48.477Z,5312
2018-02-22T07:33:58.286Z,5524
2018-02-22T07:35:08.291Z,5232
2018-02-22T07:36:18.469Z,4980
2018-02-22T07:37:28.712Z,5364
2018-02-22T07:38:38.855Z,5104
2018-02-22T07:39:49.057Z,5104
2018-02-22T07:40:59.305Z,4852
2018-02-22T07:42:10.485Z,5804
2018-02-22T07:43:20.734Z,4604
2018-02-22T07:44:30.927Z,3916
2018-02-22T07:45:40.816Z,4300
2018-02-22T07:46:50.731Z,4040
2018-02-22T07:48:00.868Z,4312
2018-02-22T07:49:10.984Z,3488
2018-02-22T07:50:21.161Z,3264
2018-02-22T07:51:31.105Z,2988
2018-02-22T07:52:41.227Z,2976
2018-02-22T07:53:51.168Z,3592
2018-02-22T07:55:01.305Z,3636
2018-02-22T07:56:11.230Z,4580
2018-02-22T07:57:21.501Z,4412
2018-02-22T07:58:31.541Z,4272
2018-02-22T07:59:41.479Z,5044
2018-02-22T08:00:51.586Z,4636
2018-02-22T08:02:01.718Z,3792
2018-02-22T08:03:12.106Z,4020
2018-02-22T08:04:22.349Z,4080
2018-02-22T08:05:32.537Z,5676
2018-02-22T08:06:42.761Z,5728
2018-02-22T08:07:52.642Z,6336
2018-02-22T08:09:02.767Z,5616
2018-02-22T08:10:12.443Z,5016
2018-02-22T08:11:22.318Z,4284
2018-02-22T08:12:32.457Z,4396
2018-02-22T08:13:42.665Z,4632
2018-02-22T08:14:52.898Z,3900
2018-02-22T08:16:03.086Z,3744
2018-02-22T08:17:13.023Z,3420
2018-02-22T08:18:22.535Z,4240
2018-02-22T08:19:32.739Z,4932
2018-02-22T08:20:42.617Z,4352
2018-02-22T08:21:52.537Z,4152
2018-02-22T08:23:02.888Z,3904
2018-02-22T08:24:13.123Z,3844
2018-02-22T08:25:23.292Z,4156
2018-02-22T08:26:33.267Z,4708
2018-02-22T08:27:43.394Z,4300
2018-02-22T08:28:53.346Z,3848
2018-02-22T08:30:03.296Z,4036
2018-02-22T08:31:13.044Z,5332
2018-02-22T08:32:23.222Z,5884
2018-02-22T08:33:33.452Z,5984
2018-02-22T08:34:43.734Z,4960
2018-02-22T08:35:53.614Z,5196
2018-02-22T08:37:03.134Z,5180
2018-02-22T08:38:13.298Z,4336
2018-02-22T08:39:23.267Z,4180
2018-02-22T08:40:33.411Z,4304
2018-02-22T08:41:43.590Z,4732
2018-02-22T08:42:53.757Z,4324
2018-02-22T08:44:03.261Z,4448
2018-02-22T08:45:13.153Z,4188
2018-02-22T08:46:23.388Z,4392
2018-02-22T08:47:33.018Z,4632
2018-02-22T08:48:42.920Z,5280
2018-02-22T08:49:52.696Z,4968
2018-02-22T08:51:02.905Z,4964
2018-02-22T08:52:13.081Z,6088
2018-02-22T08:53:23.339Z,6336
2018-02-22T08:54:33.223Z,7260
2018-02-22T08:55:43.376Z,7720
2018-02-22T08:56:53.499Z,9160
2018-02-22T08:58:03.675Z,8280
2018-02-22T08:59:13.571Z,11044
2018-02-22T09:00:23.812Z,13116
2018-02-22T09:01:34.027Z,10592
2018-02-22T09:02:43.856Z,9140
2018-02-22T09:03:53.731Z,10808
2018-02-22T09:05:03.906Z,10964
2018-02-22T09:06:13.604Z,9112
2018-02-22T09:07:23.206Z,9820
2018-02-22T09:08:33.361Z,13264
2018-02-22T09:09:42.950Z,13920
2018-02-22T09:10:53.109Z,10120
2018-02-22T09:12:02.980Z,11144
2018-02-22T09:13:13.141Z,14316
2018-02-22T09:14:23.290Z,17024
2018-02-22T09:15:33.161Z,20672
2018-02-22T09:16:43.362Z,30848
2018-02-22T09:17:53.213Z,25536
2018-02-22T09:19:03.381Z,17440
2018-02-22T09:20:13.531Z,11916
2018-02-22T09:21:23.797Z,11780
2018-02-22T09:22:33.605Z,25248
2018-02-22T09:23:43.716Z,13352
2018-02-22T09:24:53.877Z,13192
2018-02-22T09:26:03.800Z,15904
2018-02-22T09:27:13.730Z,12516
2018-02-22T09:28:23.858Z,12856
2018-02-22T09:29:34.027Z,14472
2018-02-22T09:30:44.170Z,14084
2018-02-22T09:31:53.792Z,19616
2018-02-22T09:33:03.826Z,32128
2018-02-22T09:34:13.939Z,23104
2018-02-22T09:35:24.130Z,25728
2018-02-22T09:36:34.499Z,45184
2018-02-22T09:37:44.509Z,43008
2018-02-22T09:38:54.367Z,42112
2018-02-22T09:40:04.524Z,44256
2018-02-22T09:41:14.782Z,47328
2018-02-22T09:42:24.928Z,48768
2018-02-22T09:43:34.759Z,47456
2018-02-22T09:44:44.917Z,45408
2018-02-22T09:45:55.033Z,45280
2018-02-22T09:47:04.710Z,48416
2018-02-22T09:48:14.588Z,51232
2018-02-22T09:49:24.461Z,47040
2018-02-22T09:50:34.357Z,50304
2018-02-22T09:51:44.530Z,44320
2018-02-22T09:52:54.684Z,42176
2018-02-22T09:54:04.861Z,44032
2018-02-22T09:55:14.860Z,46272
2018-02-22T09:56:25.044Z,48800
2018-02-22T09:57:35.319Z,46368
2018-02-22T09:58:45.237Z,45760
2018-02-22T09:59:55.401Z,47360
2018-02-22T10:01:05.217Z,47808
2018-02-22T10:02:15.370Z,43840
2018-02-22T10:03:25.288Z,41472
2018-02-22T10:04:34.950Z,49216
2018-02-22T10:05:44.932Z,50400
2018-02-22T10:06:54.831Z,53568
2018-02-22T10:08:04.966Z,52224
2018-02-22T10:09:14.863Z,45472
2018-02-22T10:10:25.067Z,47008
2018-02-22T10:11:35.228Z,52544
2018-02-22T10:12:44.850Z,43936
2018-02-22T10:13:54.639Z,49888
2018-02-22T10:15:04.254Z,55264
2018-02-22T10:16:14.529Z,45024
2018-02-22T10:17:24.373Z,46752
2018-02-22T10:18:34.514Z,58080
2018-02-22T10:19:44.415Z,50144
2018-02-22T10:20:54.576Z,49024
2018-02-22T10:22:04.365Z,53824
2018-02-22T10:23:14.538Z,45024
2018-02-22T10:24:24.702Z,48576
2018-02-22T10:25:34.879Z,54240
2018-02-22T10:26:45.057Z,55904
2018-02-22T10:27:55.231Z,45888
2018-02-22T10:29:05.453Z,47904
2018-02-22T10:30:15.613Z,46112
2018-02-22T10:31:25.797Z,47648
2018-02-22T10:32:35.978Z,52128
2018-02-22T10:33:46.132Z,49600
2018-02-22T10:34:56.280Z,52832
2018-02-22T10:36:06.467Z,51488
2018-02-22T10:37:16.644Z,49760
2018-02-22T10:38:26.592Z,50080
2018-02-22T10:39:39.459Z,47872
2018-02-22T10:40:55.147Z,53760
2018-02-22T10:42:11.589Z,51776
2018-02-22T10:43:21.777Z,53280
2018-02-22T10:44:31.949Z,51936
2018-02-22T10:45:42.184Z,46592
2018-02-22T10:46:52.382Z,49632
2018-02-22T10:48:02.232Z,54368
2018-02-22T10:49:12.446Z,53376
2018-02-22T10:50:22.679Z,58848
2018-02-22T10:51:32.864Z,52800
2018-02-22T10:52:43.207Z,41664
2018-02-22T10:53:53.002Z,52096
2018-02-22T10:55:03.156Z,52352
2018-02-22T10:56:13.193Z,51072
2018-02-22T10:57:23.357Z,50560
2018-02-22T10:58:33.636Z,17504
2018-02-22T10:59:43.838Z,28032
2018-02-22T11:00:54.037Z,46400
2018-02-22T11:02:03.837Z,36288
2018-02-22T11:03:13.475Z,54272
2018-02-22T11:04:23.381Z,45056
2018-02-22T11:05:33.036Z,64704
2018-02-22T11:06:42.976Z,61472
2018-02-22T11:07:53.194Z,51520
2018-02-22T11:09:03.297Z,55520
2018-02-22T11:10:13.227Z,55680
2018-02-22T11:11:23.376Z,47232
2018-02-22T11:12:33.542Z,42368
2018-02-22T11:13:43.710Z,51072
2018-02-22T11:14:53.606Z,69600
2018-02-22T11:16:03.496Z,62432
2018-02-22T11:17:13.405Z,52224
2018-02-22T11:18:23.634Z,49984
2018-02-22T11:19:33.799Z,49376
2018-02-22T11:20:43.757Z,55072
2018-02-22T11:21:53.549Z,56288
2018-02-22T11:23:03.441Z,55520
2018-02-22T11:24:13.632Z,54624
2018-02-22T11:25:23.840Z,61440
2018-02-22T11:26:33.747Z,56352
2018-02-22T11:27:43.902Z,53152
2018-02-22T11:28:53.778Z,51552
2018-02-22T11:30:04.034Z,51520
2018-02-22T11:31:14.295Z,58112
2018-02-22T11:32:25.428Z,45568
2018-02-22T11:33:35.330Z,47168
2018-02-22T11:34:45.664Z,43968
2018-02-22T11:35:55.928Z,52864
2018-02-22T11:37:06.137Z,53952
2018-02-22T11:38:16.308Z,56896
2018-02-22T11:39:26.510Z,39584
2018-02-22T11:40:36.662Z,18240
2018-02-22T11:41:46.878Z,39968
2018-02-22T11:42:57.063Z,49536
2018-02-22T11:44:06.992Z,37824
2018-02-22T11:45:17.176Z,57920
2018-02-22T11:46:27.352Z,50272
2018-02-22T11:47:37.203Z,22688
2018-02-22T11:48:47.404Z,53120
2018-02-22T11:49:57.383Z,51968
2018-02-22T11:51:07.493Z,55680
2018-02-22T11:52:17.643Z,61024
2018-02-22T11:53:27.497Z,64384
2018-02-22T11:54:37.684Z,62016
2018-02-22T11:55:47.977Z,48704
2018-02-22T11:56:57.915Z,52256
2018-02-22T11:58:07.848Z,59936
2018-02-22T11:59:17.774Z,46016
2018-02-22T12:00:27.929Z,54176
2018-02-22T12:01:38.126Z,61088
2018-02-22T12:02:48.300Z,48096
2018-02-22T12:03:58.216Z,49088
2018-02-22T12:05:08.087Z,59328
2018-02-22T12:06:18.371Z,47232
2018-02-22T12:07:28.295Z,50240
2018-02-22T12:08:38.151Z,47968
2018-02-22T12:09:48.075Z,33984
2018-02-22T12:10:58.242Z,59904
2018-02-22T12:12:08.475Z,19872
2018-02-22T12:13:18.664Z,17600
2018-02-22T12:14:28.957Z,44352
2018-02-22T12:15:39.116Z,50496
2018-02-22T12:16:49.409Z,55840
2018-02-22T12:17:59.587Z,43264
2018-02-22T12:19:09.746Z,19296
2018-02-22T12:20:19.933Z,38368
2018-02-22T12:21:30.209Z,22976
2018-02-22T12:22:40.236Z,13444
2018-02-22T12:23:50.146Z,27360
2018-02-22T12:25:00.033Z,13004
2018-02-22T12:26:10.219Z,16448
2018-02-22T12:27:20.391Z,56256
2018-02-22T12:28:30.613Z,51392
2018-02-22T12:29:40.826Z,16864
2018-02-22T12:30:51.005Z,37088
2018-02-22T12:32:00.886Z,10436
2018-02-22T12:33:11.098Z,10368
2018-02-22T12:34:21.252Z,10832
2018-02-22T12:35:31.430Z,13048
2018-02-22T12:36:41.585Z,21920
2018-02-22T12:37:51.839Z,61024
2018-02-22T12:39:02.007Z,58144
2018-02-22T12:40:11.661Z,54304
2018-02-22T12:41:21.819Z,54816
2018-02-22T12:42:31.693Z,53216
2018-02-22T12:43:41.888Z,52544
2018-02-22T12:44:51.714Z,54720
2018-02-22T12:46:01.958Z,10140
2018-02-22T12:47:12.230Z,50624
2018-02-22T12:48:22.456Z,59904
2018-02-22T12:49:32.737Z,59136
2018-02-22T12:50:43.868Z,51104
2018-02-22T12:51:54.112Z,62080
2018-02-22T12:53:04.302Z,61824
2018-02-22T12:54:14.272Z,46688
2018-02-22T12:55:24.061Z,48480
2018-02-22T12:56:34.198Z,57152
2018-02-22T12:57:44.370Z,54240
2018-02-22T12:58:54.588Z,55584
2018-02-22T13:00:04.755Z,55424
2018-02-22T13:01:14.393Z,51552
2018-02-22T13:02:24.336Z,53408
2018-02-22T13:03:34.536Z,53344
2018-02-22T13:04:44.480Z,48320
2018-02-22T13:05:55.043Z,51168
2018-02-22T13:07:05.209Z,51456
2018-02-22T13:08:15.417Z,47840
2018-02-22T13:09:25.327Z,49856
2018-02-22T13:10:35.622Z,49824
2018-02-22T13:11:45.848Z,42848
2018-02-22T13:12:55.868Z,39456
2018-02-22T13:14:05.657Z,44960
2018-02-22T13:15:15.777Z,53344
2018-02-22T13:16:25.903Z,52640
2018-02-22T13:17:36.040Z,50464
2018-02-22T13:18:46.252Z,48160
2018-02-22T13:19:56.452Z,48256
2018-02-22T13:21:06.905Z,47552
2018-02-22T13:22:18.030Z,47968
2018-02-22T13:23:28.205Z,50400
2018-02-22T13:24:37.865Z,50336
2018-02-22T13:25:48.234Z,48480
2018-02-22T13:26:58.598Z,43808
2018-02-22T13:28:08.747Z,35680
2018-02-22T13:29:18.934Z,48896
2018-02-22T13:30:29.328Z,45856
2018-02-22T13:31:39.875Z,44128
2018-02-22T13:32:49.819Z,42304
2018-02-22T13:34:00.255Z,43232
2018-02-22T13:35:10.071Z,22464
2018-02-22T13:36:20.246Z,45632
2018-02-22T13:37:30.661Z,49760
2018-02-22T13:38:41.032Z,42624
2018-02-22T13:39:51.254Z,15872
2018-02-22T13:41:01.166Z,8208
2018-02-22T13:42:11.615Z,8684
2018-02-22T13:43:21.816Z,9544
2018-02-22T13:44:31.586Z,13360
2018-02-22T13:45:41.700Z,41632
2018-02-22T13:46:51.987Z,9184
2018-02-22T13:48:02.371Z,8932
2018-02-22T13:49:12.382Z,10296
2018-02-22T13:50:22.992Z,9660
2018-02-22T13:51:32.996Z,8076
2018-02-22T13:52:43.187Z,7128
2018-02-22T13:53:53.381Z,7076
2018-02-22T13:55:03.996Z,7520
2018-02-22T13:56:14.344Z,8196
2018-02-22T13:57:24.377Z,10004
2018-02-22T13:59:06.279Z,14300
2018-02-22T14:00:16.176Z,15104
2018-02-22T14:01:26.042Z,35776
2018-02-22T14:02:36.240Z,37792
2018-02-22T14:03:46.382Z,8856
2018-02-22T14:04:56.369Z,7780
2018-02-22T14:06:06.572Z,6972
2018-02-22T14:07:16.749Z,5880
2018-02-22T14:08:26.933Z,5360
2018-02-22T14:09:36.832Z,5740
2018-02-22T14:10:46.993Z,6840
2018-02-22T14:11:57.362Z,8656
2018-02-22T14:13:07.181Z,10836
2018-02-22T14:14:17.063Z,13296
2018-02-22T14:15:26.931Z,38912
2018-02-22T14:16:36.880Z,36896
2018-02-22T14:17:47.099Z,10692
2018-02-22T14:18:57.303Z,10392
2018-02-22T14:20:07.498Z,11212
2018-02-22T14:21:17.705Z,21056
2018-02-22T14:22:27.626Z,31328
2018-02-22T14:23:37.584Z,32576
2018-02-22T14:24:47.183Z,31040
2018-02-22T14:25:57.087Z,15136
2018-02-22T14:27:07.023Z,11692
2018-02-22T14:28:16.705Z,19520
2018-02-22T14:29:26.374Z,22560
2018-02-22T14:30:36.611Z,29344
2018-02-22T14:31:46.783Z,22976
2018-02-22T14:32:56.664Z,30304
2018-02-22T14:34:06.326Z,27552
2018-02-22T14:35:16.501Z,23552
2018-02-22T14:36:26.425Z,22560
2018-02-22T14:37:36.629Z,22848
2018-02-22T14:38:46.503Z,15840
2018-02-22T14:39:56.445Z,12564
2018-02-22T14:41:06.642Z,8344
2018-02-22T14:42:16.914Z,18656
2018-02-22T14:43:26.469Z,17760
2018-02-22T14:44:36.141Z,6828
2018-02-22T14:45:46.428Z,5768
2018-02-22T14:46:56.571Z,5628
2018-02-22T14:48:06.260Z,5560
2018-02-22T14:49:16.205Z,5808
2018-02-22T14:50:26.167Z,6036
2018-02-22T14:51:36.344Z,6328
2018-02-22T14:52:46.492Z,6600
2018-02-22T14:53:56.690Z,12220
2018-02-22T14:55:06.084Z,19264
2018-02-22T14:56:16.017Z,20160
2018-02-22T14:57:26.219Z,20128
2018-02-22T14:58:37.102Z,18464
2018-02-22T14:59:47.000Z,17856
2018-02-22T15:00:57.221Z,18496
2018-02-22T15:02:07.162Z,18144
2018-02-22T15:03:16.885Z,17728
2018-02-22T15:04:27.127Z,18208
2018-02-22T15:05:37.385Z,17504
2018-02-22T15:06:47.627Z,17024
2018-02-22T15:07:57.274Z,17280
2018-02-22T15:09:07.326Z,16128
2018-02-22T15:10:17.255Z,16224
2018-02-22T15:11:26.858Z,15872
2018-02-22T15:12:37.004Z,15744
2018-02-22T15:13:47.192Z,16064
2018-02-22T15:14:57.357Z,15424
2018-02-22T15:16:07.632Z,15648
2018-02-22T15:17:17.807Z,15680
2018-02-22T15:18:28.023Z,16288
2018-02-22T15:19:38.181Z,16672
2018-02-22T15:20:48.662Z,16000
2018-02-22T15:21:58.646Z,15104
2018-02-22T15:23:08.900Z,14080
2018-02-22T15:24:19.106Z,12864
2018-02-22T15:25:29.342Z,10572
2018-02-22T15:26:39.532Z,5872
2018-02-22T15:27:49.762Z,5372
2018-02-22T15:28:59.974Z,5452
2018-02-22T15:30:10.144Z,4688
2018-02-22T15:31:20.311Z,4232
2018-02-22T15:32:30.455Z,3816
2018-02-22T15:33:44.275Z,3616
2018-02-22T15:34:57.169Z,3496
2018-02-22T15:36:07.484Z,3360
2018-02-22T15:37:17.796Z,3168
2018-02-22T15:38:27.720Z,3056
2018-02-22T15:39:37.416Z,2964
2018-02-22T15:40:47.864Z,2852
2018-02-22T15:41:58.204Z,2760
2018-02-22T15:43:09.064Z,2644
2018-02-22T15:44:19.266Z,2480
2018-02-22T15:45:29.587Z,2348
2018-02-22T15:46:39.817Z,2260
2018-02-22T15:47:49.992Z,2192
2018-02-22T15:49:00.232Z,2160
2018-02-22T15:50:10.546Z,2148
2018-02-22T15:51:20.728Z,2156
2018-02-22T15:52:30.848Z,2168
2018-02-22T15:53:40.997Z,2164
2018-02-22T15:54:51.140Z,2136
2018-02-22T15:56:01.346Z,2072
2018-02-22T15:57:11.546Z,2008
2018-02-22T15:58:21.773Z,1976
2018-02-22T15:59:32.041Z,1956
2018-02-22T16:00:42.272Z,1924
2018-02-22T16:01:52.477Z,1876
2018-02-22T16:03:02.675Z,1840
2018-02-22T16:04:13.003Z,1768
2018-02-22T16:05:23.149Z,1652
2018-02-22T16:06:33.446Z,1532
2018-02-22T16:07:43.403Z,1464
2018-02-22T16:08:53.613Z,1404
2018-02-22T16:10:03.209Z,1340
2018-02-22T16:11:13.740Z,1272
2018-02-22T16:12:23.705Z,1220
2018-02-22T16:13:33.466Z,1172
2018-02-22T16:14:43.232Z,1128
2018-02-22T16:15:53.235Z,1100
2018-02-22T16:17:03.670Z,1092
2018-02-22T16:18:14.063Z,1084
2018-02-22T16:19:24.328Z,1048
2018-02-22T16:20:34.653Z,988
2018-02-22T16:21:44.823Z,888
2018-02-22T16:22:54.735Z,764
2018-02-22T16:24:04.951Z,652
2018-02-22T16:25:14.693Z,560
2018-02-22T16:26:24.844Z,480
2018-02-22T16:27:34.878Z,416
2018-02-22T16:28:45.122Z,360
2018-02-22T16:29:55.373Z,316
2018-02-22T16:31:05.570Z,284
2018-02-22T16:32:15.810Z,252
2018-02-22T16:33:26.114Z,228